sensor_id;sensor_type;location;lat;lon;timestamp;temperature;humidity
49901;DHT22;35789;48.414;12.768;2023-06-14T00:00:00;11.7;90.8
49901;DHT22;35789;48.414;12.768;2023-06-14T00:05:00;11.6;90.7
49901;DHT22;35789;48.414;12.768;2023-06-14T00:10:00;11.6;91.0
49901;DHT22;35789;48.414;12.768;2023-06-14T00:15:00;11.5;91.2
49901;DHT22;35789;48.414;12.768;2023-06-14T00:20:02;11.5;91.1
49901;DHT22;35789;48.414;12.768;2023-06-14T00:25:00;11.5;91.2
49901;DHT22;35789;48.414;12.768;2023-06-14T00:30:00;11.3;91.5
49901;DHT22;35789;48.414;12.768;2023-06-14T00:35:00;11.3;92.0
49901;DHT22;35789;48.414;12.768;2023-06-14T00:40:00;11.2;91.5
49901;DHT22;35789;48.414;12.768;2023-06-14T00:45:00;11.1;92.4
49901;DHT22;35789;48.414;12.768;2023-06-14T00:50:00;11.1;91.7
49901;DHT22;35789;48.414;12.768;2023-06-14T00:55:00;11.0;92.0
49901;DHT22;35789;48.414;12.768;2023-06-14T01:00:00;10.9;92.0
49901;DHT22;35789;48.414;12.768;2023-06-14T01:05:00;10.8;92.5
49901;DHT22;35789;48.414;12.768;2023-06-14T01:10:04;10.7;91.9
49901;DHT22;35789;48.414;12.768;2023-06-14T01:15:00;10.6;92.5
49901;DHT22;35789;48.414;12.768;2023-06-14T01:20:01;10.6;92.6
49901;DHT22;35789;48.414;12.768;2023-06-14T01:25:00;10.6;92.4
49901;DHT22;35789;48.414;12.768;2023-06-14T01:30:00;10.5;92.5
49901;DHT22;35789;48.414;12.768;2023-06-14T01:35:00;10.4;92.9
49901;DHT22;35789;48.414;12.768;2023-06-14T01:40:01;10.4;92.5
49901;DHT22;35789;48.414;12.768;2023-06-14T01:45:00;10.4;92.4
49901;DHT22;35789;48.414;12.768;2023-06-14T01:50:00;10.3;92.8
49901;DHT22;35789;48.414;12.768;2023-06-14T01:55:00;10.3;92.9
49901;DHT22;35789;48.414;12.768;2023-06-14T02:00:00;10.2;93.2
49901;DHT22;35789;48.414;12.768;2023-06-14T02:05:00;10.2;93.3
49901;DHT22;35789;48.414;12.768;2023-06-14T02:10:00;10.2;93.0
49901;DHT22;35789;48.414;12.768;2023-06-14T02:15:00;10.0;92.9
49901;DHT22;35789;48.414;12.768;2023-06-14T02:20:00;10.0;93.6
49901;DHT22;35789;48.414;12.768;2023-06-14T02:25:00;10.0;93.4
49901;DHT22;35789;48.414;12.768;2023-06-14T02:30:00;9.9;93.8
49901;DHT22;35789;48.414;12.768;2023-06-14T02:35:00;9.9;93.7
49901;DHT22;35789;48.414;12.768;2023-06-14T02:40:00;9.8;93.3
49901;DHT22;35789;48.414;12.768;2023-06-14T02:45:00;9.7;93.6
49901;DHT22;35789;48.414;12.768;2023-06-14T02:50:00;9.7;93.6
49901;DHT22;35789;48.414;12.768;2023-06-14T02:55:00;9.6;93.8
49901;DHT22;35789;48.414;12.768;2023-06-14T03:00:00;9.6;93.7
49901;DHT22;35789;48.414;12.768;2023-06-14T03:05:00;9.5;94.0
49901;DHT22;35789;48.414;12.768;2023-06-14T03:10:00;9.6;93.7
49901;DHT22;35789;48.414;12.768;2023-06-14T03:15:00;9.6;93.9
49901;DHT22;35789;48.414;12.768;2023-06-14T03:20:00;9.6;94.2
49901;DHT22;35789;48.414;12.768;2023-06-14T03:25:00;9.5;94.1
49901;DHT22;35789;48.414;12.768;2023-06-14T03:30:00;9.5;94.1
49901;DHT22;35789;48.414;12.768;2023-06-14T03:35:00;9.6;94.0
49901;DHT22;35789;48.414;12.768;2023-06-14T03:40:00;9.5;94.1
49901;DHT22;35789;48.414;12.768;2023-06-14T03:45:00;9.6;94.4
49901;DHT22;35789;48.414;12.768;2023-06-14T03:50:00;9.7;94.1
49901;DHT22;35789;48.414;12.768;2023-06-14T03:55:00;9.6;94.8
49901;DHT22;35789;48.414;12.768;2023-06-14T04:00:00;9.6;94.1
49901;DHT22;35789;48.414;12.768;2023-06-14T04:05:00;9.7;94.5
49901;DHT22;35789;48.414;12.768;2023-06-14T04:10:00;9.7;94.2
49901;DHT22;35789;48.414;12.768;2023-06-14T04:15:00;9.5;94.4
49901;DHT22;35789;48.414;12.768;2023-06-14T04:20:00;9.7;94.6
49901;DHT22;35789;48.414;12.768;2023-06-14T04:25:00;9.7;94.7
49901;DHT22;35789;48.414;12.768;2023-06-14T04:30:00;9.7;94.8
49901;DHT22;35789;48.414;12.768;2023-06-14T04:35:00;9.8;94.5
49901;DHT22;35789;48.414;12.768;2023-06-14T04:40:00;9.9;94.7
49901;DHT22;35789;48.414;12.768;2023-06-14T04:45:00;10.1;94.9
49901;DHT22;35789;48.414;12.768;2023-06-14T04:50:00;10.2;94.8
49901;DHT22;35789;48.414;12.768;2023-06-14T04:55:00;10.3;95.0
49901;DHT22;35789;48.414;12.768;2023-06-14T05:00:00;10.4;94.9
49901;DHT22;35789;48.414;12.768;2023-06-14T05:05:00;10.5;94.9
49901;DHT22;35789;48.414;12.768;2023-06-14T05:10:00;10.6;95.1
49901;DHT22;35789;48.414;12.768;2023-06-14T05:15:00;10.7;95.2
49901;DHT22;35789;48.414;12.768;2023-06-14T05:20:00;10.8;95.2
49901;DHT22;35789;48.414;12.768;2023-06-14T05:25:00;11.0;95.8
49901;DHT22;35789;48.414;12.768;2023-06-14T05:30:00;11.1;95.4
49901;DHT22;35789;48.414;12.768;2023-06-14T05:35:00;11.3;95.6
49901;DHT22;35789;48.414;12.768;2023-06-14T05:40:00;11.4;95.8
49901;DHT22;35789;48.414;12.768;2023-06-14T05:45:00;11.5;95.9
49901;DHT22;35789;48.414;12.768;2023-06-14T05:50:00;11.6;96.0
49901;DHT22;35789;48.414;12.768;2023-06-14T05:55:00;11.8;95.7
49901;DHT22;35789;48.414;12.768;2023-06-14T06:00:00;12.2;93.4
49901;DHT22;35789;48.414;12.768;2023-06-14T06:05:00;12.4;94.4
49901;DHT22;35789;48.414;12.768;2023-06-14T06:10:00;12.5;94.2
49901;DHT22;35789;48.414;12.768;2023-06-14T06:15:00;12.7;93.2
49901;DHT22;35789;48.414;12.768;2023-06-14T06:20:00;13.0;92.6
49901;DHT22;35789;48.414;12.768;2023-06-14T06:25:00;13.2;92.7
49901;DHT22;35789;48.414;12.768;2023-06-14T06:30:00;13.3;92.6
49901;DHT22;35789;48.414;12.768;2023-06-14T06:35:00;13.4;91.9
49901;DHT22;35789;48.414;12.768;2023-06-14T06:40:00;13.6;91.6
49901;DHT22;35789;48.414;12.768;2023-06-14T06:45:00;13.7;92.6
49901;DHT22;35789;48.414;12.768;2023-06-14T06:50:00;14.1;90.9
49901;DHT22;35789;48.414;12.768;2023-06-14T06:55:00;14.2;89.0
49901;DHT22;35789;48.414;12.768;2023-06-14T07:00:00;14.2;90.2
49901;DHT22;35789;48.414;12.768;2023-06-14T07:05:00;14.4;89.9
49901;DHT22;35789;48.414;12.768;2023-06-14T07:10:00;14.7;90.1
49901;DHT22;35789;48.414;12.768;2023-06-14T07:15:00;14.8;90.4
49901;DHT22;35789;48.414;12.768;2023-06-14T07:20:00;15.0;90.2
49901;DHT22;35789;48.414;12.768;2023-06-14T07:25:00;15.2;85.5
49901;DHT22;35789;48.414;12.768;2023-06-14T07:30:00;15.4;88.7
49901;DHT22;35789;48.414;12.768;2023-06-14T07:35:00;15.3;88.8
49901;DHT22;35789;48.414;12.768;2023-06-14T07:40:00;15.5;86.9
49901;DHT22;35789;48.414;12.768;2023-06-14T07:45:00;15.8;86.4
49901;DHT22;35789;48.414;12.768;2023-06-14T07:50:00;15.9;89.0
49901;DHT22;35789;48.414;12.768;2023-06-14T07:55:00;16.0;86.9
49901;DHT22;35789;48.414;12.768;2023-06-14T08:00:00;16.2;87.1
49901;DHT22;35789;48.414;12.768;2023-06-14T08:05:00;16.6;87.1
49901;DHT22;35789;48.414;12.768;2023-06-14T08:10:00;16.4;88.4
49901;DHT22;35789;48.414;12.768;2023-06-14T08:15:00;16.6;85.2
49901;DHT22;35789;48.414;12.768;2023-06-14T08:20:00;16.9;84.8
49901;DHT22;35789;48.414;12.768;2023-06-14T08:25:00;17.3;82.3
49901;DHT22;35789;48.414;12.768;2023-06-14T08:30:00;17.8;79.8
49901;DHT22;35789;48.414;12.768;2023-06-14T08:35:00;17.8;81.1
49901;DHT22;35789;48.414;12.768;2023-06-14T08:40:00;17.8;82.0
49901;DHT22;35789;48.414;12.768;2023-06-14T08:45:00;18.0;83.5
49901;DHT22;35789;48.414;12.768;2023-06-14T08:50:00;17.9;81.9
49901;DHT22;35789;48.414;12.768;2023-06-14T08:55:00;18.0;81.0
49901;DHT22;35789;48.414;12.768;2023-06-14T09:00:00;18.3;81.6
49901;DHT22;35789;48.414;12.768;2023-06-14T09:05:00;18.6;78.3
49901;DHT22;35789;48.414;12.768;2023-06-14T09:10:08;18.6;79.8
49901;DHT22;35789;48.414;12.768;2023-06-14T09:15:00;18.4;80.4
49901;DHT22;35789;48.414;12.768;2023-06-14T09:20:00;18.5;78.7
49901;DHT22;35789;48.414;12.768;2023-06-14T09:25:00;19.1;79.4
49901;DHT22;35789;48.414;12.768;2023-06-14T09:30:00;19.3;78.7
49901;DHT22;35789;48.414;12.768;2023-06-14T09:35:00;19.5;80.1
49901;DHT22;35789;48.414;12.768;2023-06-14T09:40:00;19.6;78.8
49901;DHT22;35789;48.414;12.768;2023-06-14T09:45:00;19.7;75.1
49901;DHT22;35789;48.414;12.768;2023-06-14T09:50:00;19.9;74.1
49901;DHT22;35789;48.414;12.768;2023-06-14T09:55:00;20.1;75.9
49901;DHT22;35789;48.414;12.768;2023-06-14T10:00:00;20.2;72.8
49901;DHT22;35789;48.414;12.768;2023-06-14T10:05:02;20.4;72.9
49901;DHT22;35789;48.414;12.768;2023-06-14T10:10:00;20.4;75.9
49901;DHT22;35789;48.414;12.768;2023-06-14T10:15:00;20.4;75.4
49901;DHT22;35789;48.414;12.768;2023-06-14T10:20:05;20.4;75.4
49901;DHT22;35789;48.414;12.768;2023-06-14T10:25:01;20.7;75.4
49901;DHT22;35789;48.414;12.768;2023-06-14T10:30:01;21.0;74.0
49901;DHT22;35789;48.414;12.768;2023-06-14T10:35:00;21.2;74.8
49901;DHT22;35789;48.414;12.768;2023-06-14T10:40:00;21.5;70.9
49901;DHT22;35789;48.414;12.768;2023-06-14T10:45:00;21.9;70.8
49901;DHT22;35789;48.414;12.768;2023-06-14T10:50:03;22.2;70.3
49901;DHT22;35789;48.414;12.768;2023-06-14T10:55:02;23.0;65.8
49901;DHT22;35789;48.414;12.768;2023-06-14T11:00:00;23.2;66.8
49901;DHT22;35789;48.414;12.768;2023-06-14T11:05:02;23.3;66.5
49901;DHT22;35789;48.414;12.768;2023-06-14T11:10:05;23.7;64.4
49901;DHT22;35789;48.414;12.768;2023-06-14T11:15:00;24.2;64.3
49901;DHT22;35789;48.414;12.768;2023-06-14T11:20:08;24.8;64.8
49901;DHT22;35789;48.414;12.768;2023-06-14T11:25:01;25.2;64.1
49901;DHT22;35789;48.414;12.768;2023-06-14T11:30:00;25.9;61.0
49901;DHT22;35789;48.414;12.768;2023-06-14T11:35:00;26.4;61.0
49901;DHT22;35789;48.414;12.768;2023-06-14T11:40:00;26.7;59.1
49901;DHT22;35789;48.414;12.768;2023-06-14T11:45:00;27.6;61.9
49901;DHT22;35789;48.414;12.768;2023-06-14T11:50:00;27.8;59.1
49901;DHT22;35789;48.414;12.768;2023-06-14T11:55:00;27.7;56.8
49901;DHT22;35789;48.414;12.768;2023-06-14T12:00:00;27.5;56.5
49901;DHT22;35789;48.414;12.768;2023-06-14T12:05:04;27.7;54.3
49901;DHT22;35789;48.414;12.768;2023-06-14T12:10:03;28.2;55.8
49901;DHT22;35789;48.414;12.768;2023-06-14T12:15:02;27.5;54.8
49901;DHT22;35789;48.414;12.768;2023-06-14T12:20:04;26.6;61.1
49901;DHT22;35789;48.414;12.768;2023-06-14T12:25:00;25.5;62.3
49901;DHT22;35789;48.414;12.768;2023-06-14T12:30:00;26.3;61.8
49901;DHT22;35789;48.414;12.768;2023-06-14T12:35:00;26.4;58.5
49901;DHT22;35789;48.414;12.768;2023-06-14T12:40:00;25.0;63.8
49901;DHT22;35789;48.414;12.768;2023-06-14T12:45:00;24.1;64.7
49901;DHT22;35789;48.414;12.768;2023-06-14T12:50:00;23.7;64.7
49901;DHT22;35789;48.414;12.768;2023-06-14T12:55:00;23.5;64.0
49901;DHT22;35789;48.414;12.768;2023-06-14T13:00:00;23.3;67.2
49901;DHT22;35789;48.414;12.768;2023-06-14T13:05:00;23.3;67.2
49901;DHT22;35789;48.414;12.768;2023-06-14T13:10:00;23.0;68.6
49901;DHT22;35789;48.414;12.768;2023-06-14T13:15:00;23.0;66.5
49901;DHT22;35789;48.414;12.768;2023-06-14T13:20:00;23.1;66.2
49901;DHT22;35789;48.414;12.768;2023-06-14T13:25:00;23.3;68.1
49901;DHT22;35789;48.414;12.768;2023-06-14T13:30:00;23.6;65.2
49901;DHT22;35789;48.414;12.768;2023-06-14T13:35:00;23.6;64.3
49901;DHT22;35789;48.414;12.768;2023-06-14T13:40:00;23.8;64.3
49901;DHT22;35789;48.414;12.768;2023-06-14T13:45:00;23.9;66.4
49901;DHT22;35789;48.414;12.768;2023-06-14T13:50:00;24.0;65.6
49901;DHT22;35789;48.414;12.768;2023-06-14T13:55:00;23.6;64.7
49901;DHT22;35789;48.414;12.768;2023-06-14T14:00:00;23.1;65.3
49901;DHT22;35789;48.414;12.768;2023-06-14T14:05:00;22.8;64.9
49901;DHT22;35789;48.414;12.768;2023-06-14T14:10:00;22.6;64.0
49901;DHT22;35789;48.414;12.768;2023-06-14T14:15:00;22.3;67.9
49901;DHT22;35789;48.414;12.768;2023-06-14T14:20:00;22.2;68.1
49901;DHT22;35789;48.414;12.768;2023-06-14T14:25:00;22.1;66.1
49901;DHT22;35789;48.414;12.768;2023-06-14T14:30:00;22.0;68.2
49901;DHT22;35789;48.414;12.768;2023-06-14T14:35:00;21.9;67.1
49901;DHT22;35789;48.414;12.768;2023-06-14T14:40:00;21.8;68.2
49901;DHT22;35789;48.414;12.768;2023-06-14T14:45:00;21.7;65.7
49901;DHT22;35789;48.414;12.768;2023-06-14T14:50:00;21.7;65.2
49901;DHT22;35789;48.414;12.768;2023-06-14T14:55:00;21.8;70.0
49901;DHT22;35789;48.414;12.768;2023-06-14T15:00:00;21.9;66.1
49901;DHT22;35789;48.414;12.768;2023-06-14T15:05:00;21.9;64.6
49901;DHT22;35789;48.414;12.768;2023-06-14T15:10:00;21.8;66.6
49901;DHT22;35789;48.414;12.768;2023-06-14T15:15:00;21.6;68.2
49901;DHT22;35789;48.414;12.768;2023-06-14T15:20:00;21.5;65.2
49901;DHT22;35789;48.414;12.768;2023-06-14T15:25:00;21.4;68.1
49901;DHT22;35789;48.414;12.768;2023-06-14T15:30:00;21.5;66.5
49901;DHT22;35789;48.414;12.768;2023-06-14T15:35:00;21.7;66.8
49901;DHT22;35789;48.414;12.768;2023-06-14T15:40:00;21.8;64.2
49901;DHT22;35789;48.414;12.768;2023-06-14T15:45:00;21.7;62.8
49901;DHT22;35789;48.414;12.768;2023-06-14T15:50:00;21.8;65.2
49901;DHT22;35789;48.414;12.768;2023-06-14T15:55:00;21.7;64.2
49901;DHT22;35789;48.414;12.768;2023-06-14T16:00:00;21.6;69.9
49901;DHT22;35789;48.414;12.768;2023-06-14T16:05:00;21.5;70.3
49901;DHT22;35789;48.414;12.768;2023-06-14T16:10:00;21.5;71.5
49901;DHT22;35789;48.414;12.768;2023-06-14T16:15:00;21.4;69.5
49901;DHT22;35789;48.414;12.768;2023-06-14T16:20:00;21.2;70.7
49901;DHT22;35789;48.414;12.768;2023-06-14T16:25:00;21.2;71.0
49901;DHT22;35789;48.414;12.768;2023-06-14T16:30:00;21.1;69.2
49901;DHT22;35789;48.414;12.768;2023-06-14T16:35:00;21.1;72.9
49901;DHT22;35789;48.414;12.768;2023-06-14T16:40:00;21.1;73.5
49901;DHT22;35789;48.414;12.768;2023-06-14T16:45:00;21.2;72.8
49901;DHT22;35789;48.414;12.768;2023-06-14T16:50:00;21.4;65.7
49901;DHT22;35789;48.414;12.768;2023-06-14T16:55:00;21.4;66.2
49901;DHT22;35789;48.414;12.768;2023-06-14T17:00:00;21.3;65.2
49901;DHT22;35789;48.414;12.768;2023-06-14T17:05:00;21.2;65.9
49901;DHT22;35789;48.414;12.768;2023-06-14T17:10:00;21.0;69.3
49901;DHT22;35789;48.414;12.768;2023-06-14T17:15:01;21.1;69.0
49901;DHT22;35789;48.414;12.768;2023-06-14T17:20:00;21.2;67.8
49901;DHT22;35789;48.414;12.768;2023-06-14T17:25:00;21.1;68.2
49901;DHT22;35789;48.414;12.768;2023-06-14T17:30:00;21.0;68.1
49901;DHT22;35789;48.414;12.768;2023-06-14T17:35:00;20.8;69.4
49901;DHT22;35789;48.414;12.768;2023-06-14T17:40:00;20.7;71.4
49901;DHT22;35789;48.414;12.768;2023-06-14T17:45:00;20.6;73.1
49901;DHT22;35789;48.414;12.768;2023-06-14T17:50:00;20.5;71.1
49901;DHT22;35789;48.414;12.768;2023-06-14T17:55:00;20.4;71.8
49901;DHT22;35789;48.414;12.768;2023-06-14T18:00:00;20.2;73.7
49901;DHT22;35789;48.414;12.768;2023-06-14T18:05:00;20.2;73.3
49901;DHT22;35789;48.414;12.768;2023-06-14T18:10:00;20.1;73.0
49901;DHT22;35789;48.414;12.768;2023-06-14T18:15:00;20.1;74.0
49901;DHT22;35789;48.414;12.768;2023-06-14T18:20:00;20.0;74.4
49901;DHT22;35789;48.414;12.768;2023-06-14T18:25:00;19.9;74.6
49901;DHT22;35789;48.414;12.768;2023-06-14T18:30:00;19.9;74.4
49901;DHT22;35789;48.414;12.768;2023-06-14T18:35:00;19.8;74.9
49901;DHT22;35789;48.414;12.768;2023-06-14T18:40:00;19.7;76.2
49901;DHT22;35789;48.414;12.768;2023-06-14T18:45:00;19.5;73.9
49901;DHT22;35789;48.414;12.768;2023-06-14T18:50:00;19.4;75.5
49901;DHT22;35789;48.414;12.768;2023-06-14T18:55:00;19.2;75.2
49901;DHT22;35789;48.414;12.768;2023-06-14T19:00:00;19.1;75.2
49901;DHT22;35789;48.414;12.768;2023-06-14T19:05:00;19.0;77.1
49901;DHT22;35789;48.414;12.768;2023-06-14T19:10:00;18.9;76.8
49901;DHT22;35789;48.414;12.768;2023-06-14T19:15:00;18.8;75.6
49901;DHT22;35789;48.414;12.768;2023-06-14T19:20:00;18.7;75.5
49901;DHT22;35789;48.414;12.768;2023-06-14T19:25:00;18.7;76.5
49901;DHT22;35789;48.414;12.768;2023-06-14T19:30:00;18.7;77.0
49901;DHT22;35789;48.414;12.768;2023-06-14T19:35:00;18.6;76.7
49901;DHT22;35789;48.414;12.768;2023-06-14T19:40:00;18.6;74.9
49901;DHT22;35789;48.414;12.768;2023-06-14T19:45:00;18.6;78.0
49901;DHT22;35789;48.414;12.768;2023-06-14T19:50:00;18.6;75.4
49901;DHT22;35789;48.414;12.768;2023-06-14T19:55:00;18.6;75.9
49901;DHT22;35789;48.414;12.768;2023-06-14T20:00:00;18.5;75.4
49901;DHT22;35789;48.414;12.768;2023-06-14T20:05:00;18.6;74.8
49901;DHT22;35789;48.414;12.768;2023-06-14T20:10:00;18.6;76.2
49901;DHT22;35789;48.414;12.768;2023-06-14T20:15:00;18.6;77.5
49901;DHT22;35789;48.414;12.768;2023-06-14T20:20:00;18.5;76.4
49901;DHT22;35789;48.414;12.768;2023-06-14T20:25:00;18.4;78.9
49901;DHT22;35789;48.414;12.768;2023-06-14T20:30:00;18.4;78.6
49901;DHT22;35789;48.414;12.768;2023-06-14T20:35:00;18.4;77.9
49901;DHT22;35789;48.414;12.768;2023-06-14T20:40:00;18.4;78.0
49901;DHT22;35789;48.414;12.768;2023-06-14T20:45:00;18.4;78.1
49901;DHT22;35789;48.414;12.768;2023-06-14T20:50:00;18.3;78.0
49901;DHT22;35789;48.414;12.768;2023-06-14T20:55:00;18.2;77.5
49901;DHT22;35789;48.414;12.768;2023-06-14T21:00:00;18.2;78.6
49901;DHT22;35789;48.414;12.768;2023-06-14T21:05:00;18.1;78.1
49901;DHT22;35789;48.414;12.768;2023-06-14T21:10:00;18.1;78.4
49901;DHT22;35789;48.414;12.768;2023-06-14T21:15:00;18.0;78.5
49901;DHT22;35789;48.414;12.768;2023-06-14T21:20:00;18.0;78.8
49901;DHT22;35789;48.414;12.768;2023-06-14T21:25:00;17.9;78.2
49901;DHT22;35789;48.414;12.768;2023-06-14T21:30:00;17.9;77.1
49901;DHT22;35789;48.414;12.768;2023-06-14T21:35:00;17.9;77.5
49901;DHT22;35789;48.414;12.768;2023-06-14T21:40:00;17.8;78.7
49901;DHT22;35789;48.414;12.768;2023-06-14T21:45:00;17.7;79.4
49901;DHT22;35789;48.414;12.768;2023-06-14T21:50:00;17.7;78.9
49901;DHT22;35789;48.414;12.768;2023-06-14T21:55:00;17.6;81.1
49901;DHT22;35789;48.414;12.768;2023-06-14T22:00:00;17.6;80.0
49901;DHT22;35789;48.414;12.768;2023-06-14T22:05:00;17.4;81.1
49901;DHT22;35789;48.414;12.768;2023-06-14T22:10:00;17.4;80.3
49901;DHT22;35789;48.414;12.768;2023-06-14T22:15:00;17.3;82.0
49901;DHT22;35789;48.414;12.768;2023-06-14T22:20:00;17.1;80.8
49901;DHT22;35789;48.414;12.768;2023-06-14T22:25:00;17.0;82.1
49901;DHT22;35789;48.414;12.768;2023-06-14T22:30:00;16.9;81.7
49901;DHT22;35789;48.414;12.768;2023-06-14T22:35:00;16.8;83.5
49901;DHT22;35789;48.414;12.768;2023-06-14T22:40:00;16.6;83.1
49901;DHT22;35789;48.414;12.768;2023-06-14T22:45:00;16.5;83.9
49901;DHT22;35789;48.414;12.768;2023-06-14T22:50:00;16.3;84.6
49901;DHT22;35789;48.414;12.768;2023-06-14T22:55:00;16.2;85.8
49901;DHT22;35789;48.414;12.768;2023-06-14T23:00:00;16.1;86.1
49901;DHT22;35789;48.414;12.768;2023-06-14T23:05:00;16.0;86.2
49901;DHT22;35789;48.414;12.768;2023-06-14T23:10:00;15.9;86.4
49901;DHT22;35789;48.414;12.768;2023-06-14T23:15:00;15.7;86.8
49901;DHT22;35789;48.414;12.768;2023-06-14T23:20:00;15.7;87.8
49901;DHT22;35789;48.414;12.768;2023-06-14T23:25:00;15.5;88.4
49901;DHT22;35789;48.414;12.768;2023-06-14T23:30:00;15.5;87.7
49901;DHT22;35789;48.414;12.768;2023-06-14T23:35:00;15.4;88.0
49901;DHT22;35789;48.414;12.768;2023-06-14T23:40:00;15.2;90.0
49901;DHT22;35789;48.414;12.768;2023-06-14T23:45:00;15.3;89.1
49901;DHT22;35789;48.414;12.768;2023-06-14T23:50:00;15.2;89.5
49901;DHT22;35789;48.414;12.768;2023-06-14T23:55:00;14.9;90.5
